Time;durP1;ratioP1;P1;durP2;ratioP2;P2;SDS_P1;SDS_P2;PMS_P1;PMS_P2;Temp;Humidity;BMP_temperature;BMP_pressure;BME280_temperature;BME280_humidity;BME280_pressure;Samples;Min_cycle;Max_cycle;Signal;HPM_P1;HPM_P2
2020/03/13 00:00:37;;;;;;;1.7;1.5;;;;;;;9.18;89.375;95100.8;;;;
2020/03/13 00:05:28;;;;;;;1.9;1.5;;;;;;;8.54;91.35352;95125.36;;;;
2020/03/13 00:06:36;;;;;;;1.9;1.5;;;;;;;8.54;91.35352;95125.36;;;;
2020/03/13 00:07:42;;;;;;;1.9;1.5;;;;;;;8.54;91.35352;95125.36;;;;
2020/03/13 00:08:42;;;;;;;1.9;1.5;;;;;;;8.54;91.35352;95125.36;;;;
2020/03/13 00:09:43;;;;;;;1.9;1.5;;;;;;;8.54;91.35352;95125.36;;;;
2020/03/13 00:14:01;;;;;;;1.9;1.5;;;;;;;8.54;91.35352;95125.36;;;;
2020/03/13 00:15:01;;;;;;;2.35;1.55;;;;;;;8.18;91.30957;95127.12;;;;
2020/03/13 00:16:23;;;;;;;2.35;1.55;;;;;;;8.18;91.30957;95127.12;;;;
2020/03/13 00:17:24;;;;;;;3.15;1.7;;;;;;;8.17;92.35352;95126;;;;
2020/03/13 00:18:25;;;;;;;3.15;1.7;;;;;;;8.17;92.35352;95126;;;;
2020/03/13 00:19:28;;;;;;;3.15;1.7;;;;;;;8.17;92.35352;95126;;;;
2020/03/13 00:20:29;;;;;;;3.15;1.7;;;;;;;8.17;92.35352;95126;;;;
2020/03/13 00:21:36;;;;;;;3.15;1.7;;;;;;;8.17;92.35352;95126;;;;
2020/03/13 00:22:36;;;;;;;3.15;1.7;;;;;;;8.17;92.35352;95126;;;;
2020/03/13 00:23:36;;;;;;;3.15;1.7;;;;;;;8.17;92.35352;95126;;;;
2020/03/13 00:24:43;;;;;;;3.15;1.7;;;;;;;8.17;92.35352;95126;;;;
2020/03/13 00:25:44;;;;;;;3.15;1.7;;;;;;;8.17;92.35352;95126;;;;
2020/03/13 00:30:24;;;;;;;3.6;1.6;;;;;;;7.88;91.91309;95145.84;;;;
2020/03/13 00:31:33;;;;;;;2.85;1.6;;;;;;;7.88;92.68359;95158.06;;;;
2020/03/13 00:32:34;;;;;;;2.85;1.6;;;;;;;7.88;92.68359;95158.06;;;;
2020/03/13 00:33:35;;;;;;;4.050001;1.75;;;;;;;7.9;92.9541;95164.84;;;;
2020/03/13 00:36:35;;;;;;;3.85;1.75;;;;;;;7.93;93.23633;95162.13;;;;
2020/03/13 00:37:38;;;;;;;3.85;1.75;;;;;;;7.93;93.23633;95162.13;;;;
2020/03/13 00:38:38;;;;;;;3.85;1.75;;;;;;;7.93;93.23633;95162.13;;;;
2020/03/13 00:39:39;;;;;;;3.85;1.75;;;;;;;7.93;93.23633;95162.13;;;;
2020/03/13 00:40:52;;;;;;;3.85;1.75;;;;;;;7.93;93.23633;95162.13;;;;
2020/03/13 00:41:53;;;;;;;3.85;1.75;;;;;;;7.93;93.23633;95162.13;;;;
2020/03/13 00:42:54;;;;;;;3.85;1.75;;;;;;;7.93;93.23633;95162.13;;;;
2020/03/13 00:43:54;;;;;;;3.85;1.75;;;;;;;7.93;93.23633;95162.13;;;;
2020/03/13 00:44:55;;;;;;;3.85;1.75;;;;;;;7.93;93.23633;95162.13;;;;
2020/03/13 00:46:00;;;;;;;3.85;1.75;;;;;;;7.93;93.23633;95162.13;;;;
2020/03/13 00:47:00;;;;;;;3.5;1.7;;;;;;;7.57;92.28125;95185.43;;;;
2020/03/13 00:48:01;;;;;;;3.5;1.7;;;;;;;7.57;92.28125;95185.43;;;;
2020/03/13 00:49:11;;;;;;;3.3;2.3;;;;;;;7.54;93.07617;95174.72;;;;
2020/03/13 00:50:11;;;;;;;3.3;2.3;;;;;;;7.54;93.07617;95174.72;;;;
2020/03/13 00:51:24;;;;;;;3.3;2.3;;;;;;;7.54;93.07617;95174.72;;;;
2020/03/13 00:52:25;;;;;;;3.3;2.3;;;;;;;7.54;93.07617;95174.72;;;;
2020/03/13 00:53:25;;;;;;;3.3;2.3;;;;;;;7.54;93.07617;95174.72;;;;
2020/03/13 00:54:30;;;;;;;3.3;2.3;;;;;;;7.54;93.07617;95174.72;;;;
2020/03/13 00:55:30;;;;;;;3.3;2.3;;;;;;;7.54;93.07617;95174.72;;;;
2020/03/13 00:56:31;;;;;;;3.3;2.3;;;;;;;7.54;93.07617;95174.72;;;;
2020/03/13 00:57:31;;;;;;;3.3;2.3;;;;;;;7.54;93.07617;95174.72;;;;
2020/03/13 00:58:31;;;;;;;3.3;2.3;;;;;;;7.54;93.07617;95174.72;;;;
2020/03/13 00:59:34;;;;;;;3.3;2.3;;;;;;;7.54;93.07617;95174.72;;;;
2020/03/13 01:00:35;;;;;;;5.55;2.35;;;;;;;7.3;92.71973;95173.67;;;;
2020/03/13 01:03:42;;;;;;;3.8;1.8;;;;;;;7.3;93.44824;95175.81;;;;
2020/03/13 01:04:48;;;;;;;3.8;1.8;;;;;;;7.3;93.44824;95175.81;;;;
2020/03/13 01:05:49;;;;;;;3.8;1.8;;;;;;;7.3;93.44824;95175.81;;;;
2020/03/13 01:06:50;;;;;;;3.8;1.8;;;;;;;7.3;93.44824;95175.81;;;;
2020/03/13 01:07:53;;;;;;;3.8;1.8;;;;;;;7.3;93.44824;95175.81;;;;
2020/03/13 01:08:54;;;;;;;3.8;1.8;;;;;;;7.3;93.44824;95175.81;;;;
2020/03/13 01:10:38;;;;;;;3.8;1.8;;;;;;;7.3;93.44824;95175.81;;;;
2020/03/13 01:11:51;;;;;;;3.8;1.8;;;;;;;7.3;93.44824;95175.81;;;;
2020/03/13 01:12:52;;;;;;;4.5;1.8;;;;;;;7.16;93.06055;95161.77;;;;
2020/03/13 01:13:53;;;;;;;4.5;1.8;;;;;;;7.16;93.06055;95161.77;;;;
2020/03/13 01:14:54;;;;;;;4.5;1.8;;;;;;;7.16;93.06055;95161.77;;;;
2020/03/13 01:15:58;;;;;;;4.849999;2.1;;;;;;;7.18;93.81445;95166.41;;;;
2020/03/13 01:17:04;;;;;;;4.849999;2.1;;;;;;;7.18;93.81445;95166.41;;;;
2020/03/13 01:18:07;;;;;;;4.849999;2.1;;;;;;;7.18;93.81445;95166.41;;;;
2020/03/13 01:19:18;;;;;;;4.849999;2.1;;;;;;;7.18;93.81445;95166.41;;;;
2020/03/13 01:20:19;;;;;;;4.849999;2.1;;;;;;;7.18;93.81445;95166.41;;;;
2020/03/13 01:21:20;;;;;;;4.849999;2.1;;;;;;;7.18;93.81445;95166.41;;;;
2020/03/13 01:22:30;;;;;;;4.849999;2.1;;;;;;;7.18;93.81445;95166.41;;;;
2020/03/13 01:23:30;;;;;;;4.849999;2.1;;;;;;;7.18;93.81445;95166.41;;;;
2020/03/13 01:24:31;;;;;;;4.849999;2.1;;;;;;;7.18;93.81445;95166.41;;;;
2020/03/13 01:25:31;;;;;;;4.849999;2.1;;;;;;;7.18;93.81445;95166.41;;;;
2020/03/13 01:26:32;;;;;;;4.3;1.9;;;;;;;7.1;93.42676;95161.74;;;;
2020/03/13 01:27:33;;;;;;;4.3;1.9;;;;;;;7.1;93.42676;95161.74;;;;
2020/03/13 01:28:34;;;;;;;4.3;1.9;;;;;;;7.1;93.42676;95161.74;;;;
2020/03/13 01:29:35;;;;;;;4.3;1.9;;;;;;;7.1;93.42676;95161.74;;;;
2020/03/13 01:30:40;;;;;;;4.3;1.9;;;;;;;7.1;93.42676;95161.74;;;;
2020/03/13 01:31:51;;;;;;;4.3;1.9;;;;;;;7.1;93.42676;95161.74;;;;
2020/03/13 01:32:51;;;;;;;4.3;1.9;;;;;;;7.1;93.42676;95161.74;;;;
2020/03/13 01:33:52;;;;;;;4.3;1.9;;;;;;;7.1;93.42676;95161.74;;;;
2020/03/13 01:34:55;;;;;;;4.3;1.9;;;;;;;7.1;93.42676;95161.74;;;;
2020/03/13 01:35:55;;;;;;;4.3;1.9;;;;;;;7.1;93.42676;95161.74;;;;
2020/03/13 01:36:59;;;;;;;4.45;2.05;;;;;;;7.05;93.36328;95158.06;;;;
2020/03/13 01:38:00;;;;;;;4.45;2.05;;;;;;;7.05;93.36328;95158.06;;;;
2020/03/13 01:39:00;;;;;;;4.45;2.05;;;;;;;7.05;93.36328;95158.06;;;;
2020/03/13 01:40:00;;;;;;;4.45;2.05;;;;;;;7.05;93.36328;95158.06;;;;
2020/03/13 01:41:16;;;;;;;4.45;2.05;;;;;;;7.05;93.36328;95158.06;;;;
2020/03/13 01:42:17;;;;;;;4.45;2.05;;;;;;;7.05;93.36328;95158.06;;;;
2020/03/13 01:43:20;;;;;;;4.45;2.05;;;;;;;7.05;93.36328;95158.06;;;;
2020/03/13 01:44:22;;;;;;;4.45;2.05;;;;;;;7.05;93.36328;95158.06;;;;
2020/03/13 01:45:23;;;;;;;4.45;2.05;;;;;;;7.05;93.36328;95158.06;;;;
2020/03/13 01:46:32;;;;;;;4.45;2.05;;;;;;;7.05;93.36328;95158.06;;;;
2020/03/13 01:47:33;;;;;;;4.05;1.85;;;;;;;6.93;93.11523;95167.31;;;;
2020/03/13 01:48:49;;;;;;;4.05;1.85;;;;;;;6.93;93.11523;95167.31;;;;
2020/03/13 01:49:52;;;;;;;4.05;1.85;;;;;;;6.93;93.11523;95167.31;;;;
2020/03/13 01:50:53;;;;;;;4.55;2;;;;;;;6.97;93.93652;95160.06;;;;
2020/03/13 01:51:53;;;;;;;4.55;2;;;;;;;6.97;93.93652;95160.06;;;;
2020/03/13 01:52:54;;;;;;;4.55;2;;;;;;;6.97;93.93652;95160.06;;;;
2020/03/13 01:53:56;;;;;;;4.55;2;;;;;;;6.97;93.93652;95160.06;;;;
2020/03/13 01:55:00;;;;;;;4.55;2;;;;;;;6.97;93.93652;95160.06;;;;
2020/03/13 01:56:01;;;;;;;4.55;2;;;;;;;6.97;93.93652;95160.06;;;;
2020/03/13 01:57:01;;;;;;;4.55;2;;;;;;;6.97;93.93652;95160.06;;;;
2020/03/13 01:58:05;;;;;;;4.55;2;;;;;;;6.97;93.93652;95160.06;;;;
2020/03/13 01:59:06;;;;;;;4.55;2;;;;;;;6.97;93.93652;95160.06;;;;
2020/03/13 02:00:10;;;;;;;4.55;2;;;;;;;6.97;93.93652;95160.06;;;;
2020/03/13 02:01:49;;;;;;;5.75;1.95;;;;;;;6.96;93.6709;95143.25;;;;
2020/03/13 02:03:54;;;;;;;3;2;;;;;;;7.02;94.41016;95155.38;;;;
2020/03/13 02:04:55;;;;;;;3;2;;;;;;;7.02;94.41016;95155.38;;;;
2020/03/13 02:05:58;;;;;;;3;2;;;;;;;7.02;94.41016;95155.38;;;;
2020/03/13 02:07:02;;;;;;;3;2;;;;;;;7.02;94.41016;95155.38;;;;
2020/03/13 02:08:08;;;;;;;3;2;;;;;;;7.02;94.41016;95155.38;;;;
2020/03/13 02:09:08;;;;;;;3;2;;;;;;;7.02;94.41016;95155.38;;;;
2020/03/13 02:10:49;;;;;;;3;2;;;;;;;7.02;94.41016;95155.38;;;;
2020/03/13 02:11:50;;;;;;;3;2;;;;;;;7.02;94.41016;95155.38;;;;
2020/03/13 02:12:50;;;;;;;3;2;;;;;;;7.02;94.41016;95155.38;;;;
2020/03/13 02:13:53;;;;;;;4.450001;2.15;;;;;;;6.99;93.76074;95165.11;;;;
2020/03/13 02:14:53;;;;;;;4.450001;2.15;;;;;;;6.99;93.76074;95165.11;;;;
2020/03/13 02:15:56;;;;;;;4.450001;2.15;;;;;;;6.99;93.76074;95165.11;;;;
2020/03/13 02:16:57;;;;;;;4.35;2.15;;;;;;;7.03;94.65527;95178;;;;
2020/03/13 02:17:57;;;;;;;4.35;2.15;;;;;;;7.03;94.65527;95178;;;;
2020/03/13 02:18:59;;;;;;;4.35;2.15;;;;;;;7.03;94.65527;95178;;;;
2020/03/13 02:19:59;;;;;;;4.35;2.15;;;;;;;7.03;94.65527;95178;;;;
2020/03/13 02:21:00;;;;;;;4.35;2.15;;;;;;;7.03;94.65527;95178;;;;
2020/03/13 02:22:11;;;;;;;4.35;2.15;;;;;;;7.03;94.65527;95178;;;;
2020/03/13 02:23:21;;;;;;;4.35;2.15;;;;;;;7.03;94.65527;95178;;;;
2020/03/13 02:24:25;;;;;;;4.35;2.15;;;;;;;7.03;94.65527;95178;;;;
2020/03/13 02:25:26;;;;;;;4.35;2.15;;;;;;;7.03;94.65527;95178;;;;
2020/03/13 02:26:26;;;;;;;4.35;2.15;;;;;;;7.03;94.65527;95178;;;;
2020/03/13 02:27:30;;;;;;;3.55;2.2;;;;;;;6.93;94.12891;95184.75;;;;
2020/03/13 02:28:31;;;;;;;3.55;2.2;;;;;;;6.93;94.12891;95184.75;;;;
2020/03/13 02:29:33;;;;;;;3.55;2.2;;;;;;;6.93;94.12891;95184.75;;;;
2020/03/13 02:30:33;;;;;;;3.55;2.2;;;;;;;6.93;94.12891;95184.75;;;;
2020/03/13 02:31:39;;;;;;;3.55;2.2;;;;;;;6.93;94.12891;95184.75;;;;
2020/03/13 02:32:42;;;;;;;3.55;2.2;;;;;;;6.93;94.12891;95184.75;;;;
2020/03/13 02:33:42;;;;;;;3.55;2.2;;;;;;;6.93;94.12891;95184.75;;;;
2020/03/13 02:34:45;;;;;;;3.55;2.2;;;;;;;6.93;94.12891;95184.75;;;;
2020/03/13 02:35:45;;;;;;;3.55;2.2;;;;;;;6.93;94.12891;95184.75;;;;
2020/03/13 02:36:52;;;;;;;3.55;2.2;;;;;;;6.93;94.12891;95184.75;;;;
2020/03/13 02:37:56;;;;;;;5.05;2;;;;;;;6.83;94.0957;95180.9;;;;
2020/03/13 02:38:56;;;;;;;5.05;2;;;;;;;6.83;94.0957;95180.9;;;;
2020/03/13 02:40:24;;;;;;;5.05;2;;;;;;;6.83;94.0957;95180.9;;;;
2020/03/13 02:41:24;;;;;;;5.05;2;;;;;;;6.83;94.0957;95180.9;;;;
2020/03/13 02:42:25;;;;;;;5.05;2;;;;;;;6.83;94.0957;95180.9;;;;
2020/03/13 02:43:28;;;;;;;5.05;2;;;;;;;6.83;94.0957;95180.9;;;;
2020/03/13 02:44:28;;;;;;;5.05;2;;;;;;;6.83;94.0957;95180.9;;;;
2020/03/13 02:45:29;;;;;;;5.05;2;;;;;;;6.83;94.0957;95180.9;;;;
2020/03/13 02:46:29;;;;;;;5.05;2;;;;;;;6.83;94.0957;95180.9;;;;
2020/03/13 02:47:30;;;;;;;5.05;2;;;;;;;6.83;94.0957;95180.9;;;;
2020/03/13 02:48:30;;;;;;;6.1;2.2;;;;;;;6.72;94.13672;95181.06;;;;
2020/03/13 02:49:31;;;;;;;6.1;2.2;;;;;;;6.72;94.13672;95181.06;;;;
2020/03/13 02:50:31;;;;;;;6.1;2.2;;;;;;;6.72;94.13672;95181.06;;;;
2020/03/13 02:51:32;;;;;;;6.1;2.2;;;;;;;6.72;94.13672;95181.06;;;;
2020/03/13 02:52:32;;;;;;;6.1;2.2;;;;;;;6.72;94.13672;95181.06;;;;
2020/03/13 02:53:33;;;;;;;6.1;2.2;;;;;;;6.72;94.13672;95181.06;;;;
2020/03/13 02:54:33;;;;;;;6.1;2.2;;;;;;;6.72;94.13672;95181.06;;;;
2020/03/13 02:55:34;;;;;;;6.1;2.2;;;;;;;6.72;94.13672;95181.06;;;;
2020/03/13 02:56:35;;;;;;;6.1;2.2;;;;;;;6.72;94.13672;95181.06;;;;
2020/03/13 02:57:35;;;;;;;6.1;2.2;;;;;;;6.72;94.13672;95181.06;;;;
2020/03/13 02:58:40;;;;;;;6.1;2.2;;;;;;;6.72;94.13672;95181.06;;;;
2020/03/13 02:59:41;;;;;;;5.4;2.1;;;;;;;6.7;94.2793;95180.88;;;;
2020/03/13 03:00:41;;;;;;;5.4;2.1;;;;;;;6.7;94.2793;95180.88;;;;
2020/03/13 03:02:14;;;;;;;5.4;2.1;;;;;;;6.7;94.2793;95180.88;;;;
2020/03/13 03:03:23;;;;;;;5.4;2.1;;;;;;;6.7;94.2793;95180.88;;;;
2020/03/13 03:04:30;;;;;;;5.4;2.1;;;;;;;6.7;94.2793;95180.88;;;;
2020/03/13 03:05:30;;;;;;;5.4;2.1;;;;;;;6.7;94.2793;95180.88;;;;
2020/03/13 03:06:34;;;;;;;5.4;2.1;;;;;;;6.7;94.2793;95180.88;;;;
2020/03/13 03:07:34;;;;;;;5.4;2.1;;;;;;;6.7;94.2793;95180.88;;;;
2020/03/13 03:08:35;;;;;;;5.4;2.1;;;;;;;6.7;94.2793;95180.88;;;;
2020/03/13 03:09:36;;;;;;;3.45;1.95;;;;;;;6.57;94.2832;95183.2;;;;
2020/03/13 03:13:08;;;;;;;3.45;1.95;;;;;;;6.57;94.2832;95183.2;;;;
2020/03/13 03:14:12;;;;;;;3.45;1.95;;;;;;;6.57;94.2832;95183.2;;;;
2020/03/13 03:15:13;;;;;;;3.45;1.95;;;;;;;6.57;94.2832;95183.2;;;;
2020/03/13 03:16:18;;;;;;;3.45;1.95;;;;;;;6.57;94.2832;95183.2;;;;
2020/03/13 03:17:19;;;;;;;3.45;1.95;;;;;;;6.57;94.2832;95183.2;;;;
2020/03/13 03:18:20;;;;;;;3.45;1.95;;;;;;;6.57;94.2832;95183.2;;;;
2020/03/13 03:19:21;;;;;;;3.45;1.95;;;;;;;6.57;94.2832;95183.2;;;;
2020/03/13 03:20:21;;;;;;;4.05;2;;;;;;;6.54;94.37988;95199.31;;;;
2020/03/13 03:21:25;;;;;;;4.05;2;;;;;;;6.54;94.37988;95199.31;;;;
2020/03/13 03:22:26;;;;;;;4.05;2;;;;;;;6.54;94.37988;95199.31;;;;
2020/03/13 03:23:26;;;;;;;4.05;2;;;;;;;6.54;94.37988;95199.31;;;;
2020/03/13 03:24:27;;;;;;;4.05;2;;;;;;;6.54;94.37988;95199.31;;;;
2020/03/13 03:25:27;;;;;;;4.05;2;;;;;;;6.54;94.37988;95199.31;;;;
2020/03/13 03:26:28;;;;;;;4.05;2;;;;;;;6.54;94.37988;95199.31;;;;
2020/03/13 03:27:28;;;;;;;4.05;2;;;;;;;6.54;94.37988;95199.31;;;;
2020/03/13 03:28:29;;;;;;;4.05;2;;;;;;;6.54;94.37988;95199.31;;;;
2020/03/13 03:29:30;;;;;;;4.05;2;;;;;;;6.54;94.37988;95199.31;;;;
2020/03/13 03:30:31;;;;;;;4.05;2;;;;;;;6.54;94.37988;95199.31;;;;
2020/03/13 03:31:34;;;;;;;4.150001;2.3;;;;;;;6.46;94.31055;95192.83;;;;
2020/03/13 03:32:34;;;;;;;4.150001;2.3;;;;;;;6.46;94.31055;95192.83;;;;
2020/03/13 03:33:35;;;;;;;4.150001;2.3;;;;;;;6.46;94.31055;95192.83;;;;
2020/03/13 03:34:37;;;;;;;4.150001;2.3;;;;;;;6.46;94.31055;95192.83;;;;
2020/03/13 03:35:38;;;;;;;4.150001;2.3;;;;;;;6.46;94.31055;95192.83;;;;
2020/03/13 03:36:40;;;;;;;4.150001;2.3;;;;;;;6.46;94.31055;95192.83;;;;
2020/03/13 03:37:41;;;;;;;4.150001;2.3;;;;;;;6.46;94.31055;95192.83;;;;
2020/03/13 03:38:42;;;;;;;4.150001;2.3;;;;;;;6.46;94.31055;95192.83;;;;
2020/03/13 03:39:46;;;;;;;4.150001;2.3;;;;;;;6.46;94.31055;95192.83;;;;
2020/03/13 03:40:54;;;;;;;4.150001;2.3;;;;;;;6.46;94.31055;95192.83;;;;
2020/03/13 03:41:55;;;;;;;5.85;2;;;;;;;6.49;94.49414;95182.62;;;;
2020/03/13 03:42:55;;;;;;;5.85;2;;;;;;;6.49;94.49414;95182.62;;;;
2020/03/13 03:43:56;;;;;;;5.85;2;;;;;;;6.49;94.49414;95182.62;;;;
2020/03/13 03:44:56;;;;;;;5.85;2;;;;;;;6.49;94.49414;95182.62;;;;
2020/03/13 03:45:57;;;;;;;5.85;2;;;;;;;6.49;94.49414;95182.62;;;;
2020/03/13 03:46:58;;;;;;;5.85;2;;;;;;;6.49;94.49414;95182.62;;;;
2020/03/13 03:47:58;;;;;;;5.85;2;;;;;;;6.49;94.49414;95182.62;;;;
2020/03/13 03:48:59;;;;;;;5.85;2;;;;;;;6.49;94.49414;95182.62;;;;
2020/03/13 03:50:00;;;;;;;5.85;2;;;;;;;6.49;94.49414;95182.62;;;;
2020/03/13 03:51:00;;;;;;;5.85;2;;;;;;;6.49;94.49414;95182.62;;;;
2020/03/13 03:52:01;;;;;;;6;2;;;;;;;6.45;94.60156;95206.87;;;;
2020/03/13 03:53:02;;;;;;;6;2;;;;;;;6.45;94.60156;95206.87;;;;
2020/03/13 03:54:05;;;;;;;6;2;;;;;;;6.45;94.60156;95206.87;;;;
2020/03/13 03:55:05;;;;;;;6;2;;;;;;;6.45;94.60156;95206.87;;;;
2020/03/13 03:56:08;;;;;;;6;2;;;;;;;6.45;94.60156;95206.87;;;;
2020/03/13 03:57:09;;;;;;;6;2;;;;;;;6.45;94.60156;95206.87;;;;
2020/03/13 03:58:09;;;;;;;6;2;;;;;;;6.45;94.60156;95206.87;;;;
2020/03/13 03:59:11;;;;;;;6;2;;;;;;;6.45;94.60156;95206.87;;;;
2020/03/13 04:00:12;;;;;;;6;2;;;;;;;6.45;94.60156;95206.87;;;;
2020/03/13 04:01:19;;;;;;;6;2;;;;;;;6.45;94.60156;95206.87;;;;
2020/03/13 04:02:19;;;;;;;6;2;;;;;;;6.45;94.60156;95206.87;;;;
2020/03/13 04:03:20;;;;;;;7.949999;2.1;;;;;;;6.48;94.29395;95219.75;;;;
2020/03/13 04:04:28;;;;;;;7.949999;2.1;;;;;;;6.48;94.29395;95219.75;;;;
2020/03/13 04:05:29;;;;;;;7.949999;2.1;;;;;;;6.48;94.29395;95219.75;;;;
2020/03/13 04:06:29;;;;;;;7.949999;2.1;;;;;;;6.48;94.29395;95219.75;;;;
2020/03/13 04:07:31;;;;;;;7.949999;2.1;;;;;;;6.48;94.29395;95219.75;;;;
2020/03/13 04:08:32;;;;;;;7.949999;2.1;;;;;;;6.48;94.29395;95219.75;;;;
2020/03/13 04:09:33;;;;;;;7.949999;2.1;;;;;;;6.48;94.29395;95219.75;;;;
2020/03/13 04:10:40;;;;;;;7.949999;2.1;;;;;;;6.48;94.29395;95219.75;;;;
2020/03/13 04:11:40;;;;;;;7.949999;2.1;;;;;;;6.48;94.29395;95219.75;;;;
2020/03/13 04:12:41;;;;;;;7.949999;2.1;;;;;;;6.48;94.29395;95219.75;;;;
2020/03/13 04:13:43;;;;;;;2.750001;1.6;;;;;;;6.47;94.08105;95234.72;;;;
2020/03/13 04:14:44;;;;;;;2.750001;1.6;;;;;;;6.47;94.08105;95234.72;;;;
2020/03/13 04:15:45;;;;;;;2.750001;1.6;;;;;;;6.47;94.08105;95234.72;;;;
2020/03/13 04:16:45;;;;;;;2.750001;1.6;;;;;;;6.47;94.08105;95234.72;;;;
2020/03/13 04:17:46;;;;;;;2.750001;1.6;;;;;;;6.47;94.08105;95234.72;;;;
2020/03/13 04:18:46;;;;;;;2.750001;1.6;;;;;;;6.47;94.08105;95234.72;;;;
2020/03/13 04:19:52;;;;;;;2.750001;1.6;;;;;;;6.47;94.08105;95234.72;;;;
2020/03/13 04:20:52;;;;;;;2.750001;1.6;;;;;;;6.47;94.08105;95234.72;;;;
2020/03/13 04:21:53;;;;;;;2.750001;1.6;;;;;;;6.47;94.08105;95234.72;;;;
2020/03/13 04:22:53;;;;;;;2.750001;1.6;;;;;;;6.47;94.08105;95234.72;;;;
2020/03/13 04:23:54;;;;;;;4.449999;1.9;;;;;;;6.5;93.92871;95244.6;;;;
2020/03/13 04:24:55;;;;;;;4.449999;1.9;;;;;;;6.5;93.92871;95244.6;;;;
2020/03/13 04:25:58;;;;;;;4.449999;1.9;;;;;;;6.5;93.92871;95244.6;;;;
2020/03/13 04:26:58;;;;;;;4.449999;1.9;;;;;;;6.5;93.92871;95244.6;;;;
2020/03/13 04:27:59;;;;;;;4.449999;1.9;;;;;;;6.5;93.92871;95244.6;;;;
2020/03/13 04:29:02;;;;;;;4.449999;1.9;;;;;;;6.5;93.92871;95244.6;;;;
2020/03/13 04:30:07;;;;;;;4.449999;1.9;;;;;;;6.5;93.92871;95244.6;;;;
2020/03/13 04:31:10;;;;;;;4.449999;1.9;;;;;;;6.5;93.92871;95244.6;;;;
2020/03/13 04:32:10;;;;;;;4.449999;1.9;;;;;;;6.5;93.92871;95244.6;;;;
2020/03/13 04:33:11;;;;;;;4.449999;1.9;;;;;;;6.5;93.92871;95244.6;;;;
2020/03/13 04:34:12;;;;;;;4.449999;1.9;;;;;;;6.5;93.92871;95244.6;;;;
2020/03/13 04:35:12;;;;;;;6.25;2.05;;;;;;;6.43;93.91504;95232.56;;;;
2020/03/13 04:36:15;;;;;;;6.25;2.05;;;;;;;6.43;93.91504;95232.56;;;;
2020/03/13 04:37:16;;;;;;;6.25;2.05;;;;;;;6.43;93.91504;95232.56;;;;
2020/03/13 04:38:16;;;;;;;6.25;2.05;;;;;;;6.43;93.91504;95232.56;;;;
2020/03/13 04:39:17;;;;;;;6.25;2.05;;;;;;;6.43;93.91504;95232.56;;;;
2020/03/13 04:40:27;;;;;;;6.25;2.05;;;;;;;6.43;93.91504;95232.56;;;;
2020/03/13 04:41:29;;;;;;;6.25;2.05;;;;;;;6.43;93.91504;95232.56;;;;
2020/03/13 04:42:29;;;;;;;6.25;2.05;;;;;;;6.43;93.91504;95232.56;;;;
2020/03/13 04:43:30;;;;;;;6.25;2.05;;;;;;;6.43;93.91504;95232.56;;;;
2020/03/13 04:44:31;;;;;;;6.25;2.05;;;;;;;6.43;93.91504;95232.56;;;;
2020/03/13 04:45:32;;;;;;;4.9;1.95;;;;;;;6.39;93.96973;95235.36;;;;
2020/03/13 04:46:35;;;;;;;4.9;1.95;;;;;;;6.39;93.96973;95235.36;;;;
2020/03/13 04:47:36;;;;;;;4.9;1.95;;;;;;;6.39;93.96973;95235.36;;;;
2020/03/13 04:48:48;;;;;;;4.9;1.95;;;;;;;6.39;93.96973;95235.36;;;;
2020/03/13 04:49:54;;;;;;;4.9;1.95;;;;;;;6.39;93.96973;95235.36;;;;
2020/03/13 04:50:57;;;;;;;4.9;1.95;;;;;;;6.39;93.96973;95235.36;;;;
2020/03/13 04:52:00;;;;;;;4.9;1.95;;;;;;;6.39;93.96973;95235.36;;;;
2020/03/13 04:53:07;;;;;;;4.9;1.95;;;;;;;6.39;93.96973;95235.36;;;;
2020/03/13 04:54:13;;;;;;;4.9;1.95;;;;;;;6.39;93.96973;95235.36;;;;
2020/03/13 04:55:15;;;;;;;4.9;1.95;;;;;;;6.39;93.96973;95235.36;;;;
2020/03/13 04:56:18;;;;;;;4.05;1.7;;;;;;;6.3;94.02344;95234.86;;;;
2020/03/13 04:57:18;;;;;;;4.05;1.7;;;;;;;6.3;94.02344;95234.86;;;;
2020/03/13 04:58:21;;;;;;;4.05;1.7;;;;;;;6.3;94.02344;95234.86;;;;
2020/03/13 04:59:25;;;;;;;4.05;1.7;;;;;;;6.3;94.02344;95234.86;;;;
2020/03/13 05:00:29;;;;;;;4.05;1.7;;;;;;;6.3;94.02344;95234.86;;;;
2020/03/13 05:01:39;;;;;;;4.05;1.7;;;;;;;6.3;94.02344;95234.86;;;;
2020/03/13 05:02:39;;;;;;;4.05;1.7;;;;;;;6.3;94.02344;95234.86;;;;
2020/03/13 05:03:42;;;;;;;4.05;1.7;;;;;;;6.3;94.02344;95234.86;;;;
2020/03/13 05:04:48;;;;;;;4.05;1.7;;;;;;;6.3;94.02344;95234.86;;;;
2020/03/13 05:05:48;;;;;;;4.05;1.7;;;;;;;6.3;94.02344;95234.86;;;;
2020/03/13 05:06:52;;;;;;;6.35;1.85;;;;;;;6.26;94.18164;95231.37;;;;
2020/03/13 05:08:02;;;;;;;6.35;1.85;;;;;;;6.26;94.18164;95231.37;;;;
2020/03/13 05:09:04;;;;;;;6.35;1.85;;;;;;;6.26;94.18164;95231.37;;;;
2020/03/13 05:10:32;;;;;;;6.35;1.85;;;;;;;6.26;94.18164;95231.37;;;;
2020/03/13 05:11:33;;;;;;;6.35;1.85;;;;;;;6.26;94.18164;95231.37;;;;
2020/03/13 05:12:34;;;;;;;6.35;1.85;;;;;;;6.26;94.18164;95231.37;;;;
2020/03/13 05:13:35;;;;;;;6.35;1.85;;;;;;;6.26;94.18164;95231.37;;;;
2020/03/13 05:14:37;;;;;;;6.35;1.85;;;;;;;6.26;94.18164;95231.37;;;;
2020/03/13 05:15:39;;;;;;;6.35;1.85;;;;;;;6.26;94.18164;95231.37;;;;
2020/03/13 05:16:44;;;;;;;6.7;2;;;;;;;6.17;94.37598;95241.5;;;;
2020/03/13 05:17:45;;;;;;;6.7;2;;;;;;;6.17;94.37598;95241.5;;;;
2020/03/13 05:18:45;;;;;;;6.7;2;;;;;;;6.17;94.37598;95241.5;;;;
2020/03/13 05:19:50;;;;;;;6.7;2;;;;;;;6.17;94.37598;95241.5;;;;
2020/03/13 05:20:51;;;;;;;6.7;2;;;;;;;6.17;94.37598;95241.5;;;;
2020/03/13 05:21:55;;;;;;;6.7;2;;;;;;;6.17;94.37598;95241.5;;;;
2020/03/13 05:22:56;;;;;;;6.7;2;;;;;;;6.17;94.37598;95241.5;;;;
2020/03/13 05:23:59;;;;;;;6.7;2;;;;;;;6.17;94.37598;95241.5;;;;
2020/03/13 05:25:04;;;;;;;6.7;2;;;;;;;6.17;94.37598;95241.5;;;;
2020/03/13 05:26:05;;;;;;;6.7;2;;;;;;;6.17;94.37598;95241.5;;;;
2020/03/13 05:27:05;;;;;;;6.7;2;;;;;;;6.17;94.37598;95241.5;;;;
2020/03/13 05:28:08;;;;;;;4.6;2.05;;;;;;;6.16;94.50879;95269.36;;;;
2020/03/13 05:29:09;;;;;;;4.6;2.05;;;;;;;6.16;94.50879;95269.36;;;;
2020/03/13 05:30:09;;;;;;;4.6;2.05;;;;;;;6.16;94.50879;95269.36;;;;
2020/03/13 05:31:10;;;;;;;4.6;2.05;;;;;;;6.16;94.50879;95269.36;;;;
2020/03/13 05:32:11;;;;;;;4.6;2.05;;;;;;;6.16;94.50879;95269.36;;;;
2020/03/13 05:33:12;;;;;;;4.6;2.05;;;;;;;6.16;94.50879;95269.36;;;;
2020/03/13 05:34:13;;;;;;;4.6;2.05;;;;;;;6.16;94.50879;95269.36;;;;
2020/03/13 05:35:15;;;;;;;4.6;2.05;;;;;;;6.16;94.50879;95269.36;;;;
2020/03/13 05:36:16;;;;;;;4.6;2.05;;;;;;;6.16;94.50879;95269.36;;;;
2020/03/13 05:37:17;;;;;;;4.6;2.05;;;;;;;6.16;94.50879;95269.36;;;;
2020/03/13 05:38:18;;;;;;;4.199999;1.75;;;;;;;6.11;94.64551;95268.75;;;;
2020/03/13 05:39:18;;;;;;;4.199999;1.75;;;;;;;6.11;94.64551;95268.75;;;;
2020/03/13 05:40:23;;;;;;;4.199999;1.75;;;;;;;6.11;94.64551;95268.75;;;;
2020/03/13 05:41:23;;;;;;;4.199999;1.75;;;;;;;6.11;94.64551;95268.75;;;;
2020/03/13 05:42:24;;;;;;;4.199999;1.75;;;;;;;6.11;94.64551;95268.75;;;;
2020/03/13 05:43:24;;;;;;;4.199999;1.75;;;;;;;6.11;94.64551;95268.75;;;;
2020/03/13 05:44:26;;;;;;;4.199999;1.75;;;;;;;6.11;94.64551;95268.75;;;;
2020/03/13 05:45:34;;;;;;;4.199999;1.75;;;;;;;6.11;94.64551;95268.75;;;;
2020/03/13 05:46:35;;;;;;;4.199999;1.75;;;;;;;6.11;94.64551;95268.75;;;;
2020/03/13 05:47:35;;;;;;;4.199999;1.75;;;;;;;6.11;94.64551;95268.75;;;;
2020/03/13 05:48:36;;;;;;;3.6;1.9;;;;;;;6.16;95.01367;95279.25;;;;
2020/03/13 05:49:37;;;;;;;3.6;1.9;;;;;;;6.16;95.01367;95279.25;;;;
2020/03/13 05:50:37;;;;;;;3.6;1.9;;;;;;;6.16;95.01367;95279.25;;;;
2020/03/13 05:51:38;;;;;;;3.6;1.9;;;;;;;6.16;95.01367;95279.25;;;;
2020/03/13 05:52:38;;;;;;;3.6;1.9;;;;;;;6.16;95.01367;95279.25;;;;
2020/03/13 05:53:39;;;;;;;3.6;1.9;;;;;;;6.16;95.01367;95279.25;;;;
2020/03/13 05:54:39;;;;;;;3.6;1.9;;;;;;;6.16;95.01367;95279.25;;;;
2020/03/13 05:55:40;;;;;;;3.6;1.9;;;;;;;6.16;95.01367;95279.25;;;;
2020/03/13 05:56:40;;;;;;;3.6;1.9;;;;;;;6.16;95.01367;95279.25;;;;
2020/03/13 05:57:41;;;;;;;3.6;1.9;;;;;;;6.16;95.01367;95279.25;;;;
2020/03/13 05:58:42;;;;;;;3.6;1.9;;;;;;;6.16;95.01367;95279.25;;;;
2020/03/13 05:59:42;;;;;;;2.65;1.45;;;;;;;6.16;95.01367;95262.74;;;;
2020/03/13 06:00:43;;;;;;;2.65;1.45;;;;;;;6.16;95.01367;95262.74;;;;
2020/03/13 06:01:44;;;;;;;2.65;1.45;;;;;;;6.16;95.01367;95262.74;;;;
2020/03/13 06:02:45;;;;;;;2.65;1.45;;;;;;;6.16;95.01367;95262.74;;;;
2020/03/13 06:03:46;;;;;;;2.65;1.45;;;;;;;6.16;95.01367;95262.74;;;;
2020/03/13 06:04:47;;;;;;;2.65;1.45;;;;;;;6.16;95.01367;95262.74;;;;
2020/03/13 06:05:48;;;;;;;2.65;1.45;;;;;;;6.16;95.01367;95262.74;;;;
2020/03/13 06:06:48;;;;;;;2.65;1.45;;;;;;;6.16;95.01367;95262.74;;;;
2020/03/13 06:07:49;;;;;;;2.65;1.45;;;;;;;6.16;95.01367;95262.74;;;;
2020/03/13 06:08:50;;;;;;;2.65;1.45;;;;;;;6.16;95.01367;95262.74;;;;
2020/03/13 06:09:50;;;;;;;3.2;1.55;;;;;;;6.23;95.01953;95270.15;;;;
2020/03/13 06:10:51;;;;;;;3.2;1.55;;;;;;;6.23;95.01953;95270.15;;;;
2020/03/13 06:11:51;;;;;;;3.2;1.55;;;;;;;6.23;95.01953;95270.15;;;;
2020/03/13 06:12:52;;;;;;;3.2;1.55;;;;;;;6.23;95.01953;95270.15;;;;
2020/03/13 06:13:52;;;;;;;3.2;1.55;;;;;;;6.23;95.01953;95270.15;;;;
2020/03/13 06:14:53;;;;;;;3.2;1.55;;;;;;;6.23;95.01953;95270.15;;;;
2020/03/13 06:15:55;;;;;;;3.2;1.55;;;;;;;6.23;95.01953;95270.15;;;;
2020/03/13 06:16:56;;;;;;;3.2;1.55;;;;;;;6.23;95.01953;95270.15;;;;
2020/03/13 06:17:56;;;;;;;3.2;1.55;;;;;;;6.23;95.01953;95270.15;;;;
2020/03/13 06:18:57;;;;;;;3.2;1.55;;;;;;;6.23;95.01953;95270.15;;;;
2020/03/13 06:19:57;;;;;;;3.2;1.55;;;;;;;6.23;95.01953;95270.15;;;;
2020/03/13 06:20:58;;;;;;;3.2;1.45;;;;;;;6.25;95.01367;95281.09;;;;
2020/03/13 06:21:59;;;;;;;3.2;1.45;;;;;;;6.25;95.01367;95281.09;;;;
2020/03/13 06:22:59;;;;;;;3.2;1.45;;;;;;;6.25;95.01367;95281.09;;;;
2020/03/13 06:23:59;;;;;;;3.2;1.45;;;;;;;6.25;95.01367;95281.09;;;;
2020/03/13 06:25:00;;;;;;;3.2;1.45;;;;;;;6.25;95.01367;95281.09;;;;